Archival Weather

Snohomish County (Paine Fld)

Everett, Washington (KPAE)

Report from: Saturday, October 28, 2023 1:53 PM PDT
Current time: Saturday, June 22, 2024 2:04 AM PDT

Current weather – Weather history – Daily summaries
Weather forecast

Temperature8.3°C (46.9°F)
Wind chill6.8°C (44.2°F)
Dew point-2.8°C (27.0°F)
Winds 5 kts (2.6 m/s, 5.8 mph) North (10°)
Visibility10 mi. (16.1 km)
Clouds Sky clear
Altimeter30.54 in.Hg (1034 mB)
Relative humidity45 %
Density altitude-1,444 ft. (-440 m)
Sea-level pressure103.5 kPa (1035 mB, 30.55 in.Hg)
Remarks Automated weather observing station with precipitation discriminator
Pressure falling more quickly
Flight conditions Visual Meteorological Conditions
Raw dataKPAE 282053Z 01005KT 10SM CLR 08/M03 A3054 RMK AO2 SLP346 T00831028 58002
An error has occurred. This application may no longer respond until reloaded. Reload 🗙